sensor_id;sensor_type;location;lat;lon;timestamp;pressure;altitude;pressure_sealevel;temperature;humidity
6345;BME280;3205;42.666;23.264;2023-03-20T00:01:15;94715.44;;;4.05;100.00
6345;BME280;3205;42.666;23.264;2023-03-20T00:03:42;94707.09;;;4.03;100.00
6345;BME280;3205;42.666;23.264;2023-03-20T00:06:13;94705.84;;;4.01;100.00
6345;BME280;3205;42.666;23.264;2023-03-20T00:08:40;94707.19;;;3.98;100.00
6345;BME280;3205;42.666;23.264;2023-03-20T00:11:21;94699.91;;;3.95;100.00
6345;BME280;3205;42.666;23.264;2023-03-20T00:13:51;94699.91;;;3.95;100.00
6345;BME280;3205;42.666;23.264;2023-03-20T00:16:18;94692.84;;;3.96;100.00
6345;BME280;3205;42.666;23.264;2023-03-20T00:18:45;94691.38;;;3.90;100.00
6345;BME280;3205;42.666;23.264;2023-03-20T00:21:16;94694.53;;;3.87;100.00
6345;BME280;3205;42.666;23.264;2023-03-20T00:23:42;94693.25;;;3.84;100.00
6345;BME280;3205;42.666;23.264;2023-03-20T00:26:11;94689.00;;;3.88;100.00
6345;BME280;3205;42.666;23.264;2023-03-20T00:28:40;94688.75;;;3.90;100.00
6345;BME280;3205;42.666;23.264;2023-03-20T00:31:14;94696.44;;;3.81;100.00
6345;BME280;3205;42.666;23.264;2023-03-20T00:33:45;94690.78;;;3.74;100.00
6345;BME280;3205;42.666;23.264;2023-03-20T00:36:11;94685.41;;;3.66;100.00
6345;BME280;3205;42.666;23.264;2023-03-20T00:38:37;94686.91;;;3.72;100.00
6345;BME280;3205;42.666;23.264;2023-03-20T00:41:19;94682.50;;;3.67;100.00
6345;BME280;3205;42.666;23.264;2023-03-20T00:43:47;94679.69;;;3.64;100.00
6345;BME280;3205;42.666;23.264;2023-03-20T00:46:16;94680.53;;;3.60;100.00
6345;BME280;3205;42.666;23.264;2023-03-20T00:48:42;94675.09;;;3.56;100.00
6345;BME280;3205;42.666;23.264;2023-03-20T00:51:09;94679.00;;;3.59;100.00
6345;BME280;3205;42.666;23.264;2023-03-20T00:53:35;94688.00;;;3.48;100.00
6345;BME280;3205;42.666;23.264;2023-03-20T00:56:02;94686.00;;;3.40;100.00
6345;BME280;3205;42.666;23.264;2023-03-20T00:58:28;94682.91;;;3.38;100.00
6345;BME280;3205;42.666;23.264;2023-03-20T01:00:54;94672.19;;;3.39;100.00
6345;BME280;3205;42.666;23.264;2023-03-20T01:03:22;94673.66;;;3.45;100.00
6345;BME280;3205;42.666;23.264;2023-03-20T01:05:49;94667.59;;;3.50;100.00
6345;BME280;3205;42.666;23.264;2023-03-20T01:08:18;94667.81;;;3.53;100.00
6345;BME280;3205;42.666;23.264;2023-03-20T01:10:45;94667.59;;;3.50;100.00
6345;BME280;3205;42.666;23.264;2023-03-20T01:13:18;94659.25;;;3.48;100.00
6345;BME280;3205;42.666;23.264;2023-03-20T01:15:46;94660.19;;;3.38;100.00
6345;BME280;3205;42.666;23.264;2023-03-20T01:18:13;94657.91;;;3.32;100.00
6345;BME280;3205;42.666;23.264;2023-03-20T01:20:40;94648.56;;;3.26;100.00
6345;BME280;3205;42.666;23.264;2023-03-20T01:23:06;94649.91;;;3.23;100.00
6345;BME280;3205;42.666;23.264;2023-03-20T01:25:33;94647.28;;;3.23;100.00
6345;BME280;3205;42.666;23.264;2023-03-20T01:27:59;94644.47;;;3.20;100.00
6345;BME280;3205;42.666;23.264;2023-03-20T01:30:28;94656.53;;;3.16;100.00
6345;BME280;3205;42.666;23.264;2023-03-20T01:32:55;94650.81;;;3.14;100.00
6345;BME280;3205;42.666;23.264;2023-03-20T01:35:24;94646.03;;;3.21;100.00
6345;BME280;3205;42.666;23.264;2023-03-20T01:37:52;94644.91;;;3.27;100.00
6345;BME280;3205;42.666;23.264;2023-03-20T01:40:29;94650.50;;;3.20;100.00
6345;BME280;3205;42.666;23.264;2023-03-20T01:42:57;94653.66;;;3.17;100.00
6345;BME280;3205;42.666;23.264;2023-03-20T01:45:28;94660.22;;;3.15;100.00
6345;BME280;3205;42.666;23.264;2023-03-20T01:47:56;94661.56;;;3.12;100.00
6345;BME280;3205;42.666;23.264;2023-03-20T01:50:29;94666.47;;;3.14;100.00
6345;BME280;3205;42.666;23.264;2023-03-20T01:53:04;94664.69;;;3.09;100.00
6345;BME280;3205;42.666;23.264;2023-03-20T01:55:31;94661.09;;;3.05;100.00
6345;BME280;3205;42.666;23.264;2023-03-20T01:58:02;94662.66;;;3.06;100.00
6345;BME280;3205;42.666;23.264;2023-03-20T02:00:32;94660.56;;;3.08;100.00
6345;BME280;3205;42.666;23.264;2023-03-20T02:02:58;94664.09;;;3.17;100.00
6345;BME280;3205;42.666;23.264;2023-03-20T02:05:25;94667.00;;;3.16;100.00
6345;BME280;3205;42.666;23.264;2023-03-20T02:08:00;94656.66;;;3.06;100.00
6345;BME280;3205;42.666;23.264;2023-03-20T02:10:28;94653.59;;;2.99;100.00
6345;BME280;3205;42.666;23.264;2023-03-20T02:12:54;94651.06;;;2.94;100.00
6345;BME280;3205;42.666;23.264;2023-03-20T02:15:25;94644.28;;;2.93;100.00
6345;BME280;3205;42.666;23.264;2023-03-20T02:17:52;94645.69;;;2.86;100.00
6345;BME280;3205;42.666;23.264;2023-03-20T02:20:26;94650.91;;;2.86;100.00
6345;BME280;3205;42.666;23.264;2023-03-20T02:23:25;94647.56;;;2.80;100.00
6345;BME280;3205;42.666;23.264;2023-03-20T02:26:25;94648.38;;;2.76;100.00
6345;BME280;3205;42.666;23.264;2023-03-20T02:29:37;94653.59;;;2.76;100.00
6345;BME280;3205;42.666;23.264;2023-03-20T02:38:50;94650.00;;;2.72;100.00
6345;BME280;3205;42.666;23.264;2023-03-20T02:41:25;94646.06;;;2.74;100.00
6345;BME280;3205;42.666;23.264;2023-03-20T02:44:00;94645.28;;;2.74;100.00
6345;BME280;3205;42.666;23.264;2023-03-20T02:46:35;94645.22;;;2.79;100.00
6345;BME280;3205;42.666;23.264;2023-03-20T02:49:10;94647.03;;;2.78;100.00
6345;BME280;3205;42.666;23.264;2023-03-20T02:51:47;94644.72;;;2.77;100.00
6345;BME280;3205;42.666;23.264;2023-03-20T02:54:24;94647.34;;;2.77;100.00
6345;BME280;3205;42.666;23.264;2023-03-20T02:56:58;94644.84;;;2.67;100.00
6345;BME280;3205;42.666;23.264;2023-03-20T02:59:31;94647.22;;;2.63;100.00
6345;BME280;3205;42.666;23.264;2023-03-20T03:02:04;94636.56;;;2.60;100.00
6345;BME280;3205;42.666;23.264;2023-03-20T03:04:35;94635.28;;;2.57;100.00
6345;BME280;3205;42.666;23.264;2023-03-20T03:07:02;94632.47;;;2.54;100.00
6345;BME280;3205;42.666;23.264;2023-03-20T03:09:35;94643.66;;;2.54;100.00
6345;BME280;3205;42.666;23.264;2023-03-20T03:12:06;94641.22;;;2.63;100.00
6345;BME280;3205;42.666;23.264;2023-03-20T03:14:37;94636.19;;;2.71;100.00
6345;BME280;3205;42.666;23.264;2023-03-20T03:17:06;94632.91;;;2.61;100.00
6345;BME280;3205;42.666;23.264;2023-03-20T03:19:35;94635.84;;;2.54;100.00
6345;BME280;3205;42.666;23.264;2023-03-20T03:22:03;94636.56;;;2.60;100.00
6345;BME280;3205;42.666;23.264;2023-03-20T03:24:31;94633.16;;;2.59;100.00
6345;BME280;3205;42.666;23.264;2023-03-20T03:26:59;94631.88;;;2.57;100.00
6345;BME280;3205;42.666;23.264;2023-03-20T03:29:30;94633.28;;;2.49;100.00
6345;BME280;3205;42.666;23.264;2023-03-20T03:32:00;94633.28;;;2.49;100.00
6345;BME280;3205;42.666;23.264;2023-03-20T03:34:27;94640.06;;;2.50;100.00
6345;BME280;3205;42.666;23.264;2023-03-20T03:36:58;94638.97;;;2.51;100.00
6345;BME280;3205;42.666;23.264;2023-03-20T03:39:32;94637.44;;;2.50;100.00
6345;BME280;3205;42.666;23.264;2023-03-20T03:42:05;94638.22;;;2.51;100.00
6345;BME280;3205;42.666;23.264;2023-03-20T03:44:38;94635.16;;;2.44;100.00
6345;BME280;3205;42.666;23.264;2023-03-20T03:47:06;94631.50;;;2.45;100.00
6345;BME280;3205;42.666;23.264;2023-03-20T03:49:38;94629.94;;;2.44;100.00
6345;BME280;3205;42.666;23.264;2023-03-20T03:52:10;94632.09;;;2.37;100.00
6345;BME280;3205;42.666;23.264;2023-03-20T03:54:42;94627.63;;;2.42;100.00
6345;BME280;3205;42.666;23.264;2023-03-20T03:57:12;94618.50;;;2.40;100.00
6345;BME280;3205;42.666;23.264;2023-03-20T03:59:43;94619.78;;;2.42;100.00
6345;BME280;3205;42.666;23.264;2023-03-20T04:02:12;94623.50;;;2.36;100.00
6345;BME280;3205;42.666;23.264;2023-03-20T04:04:43;94618.06;;;2.33;100.00
6345;BME280;3205;42.666;23.264;2023-03-20T04:07:12;94620.38;;;2.34;100.00
6345;BME280;3205;42.666;23.264;2023-03-20T04:09:38;94619.06;;;2.37;100.00
6345;BME280;3205;42.666;23.264;2023-03-20T04:12:05;94621.13;;;2.40;100.00
6345;BME280;3205;42.666;23.264;2023-03-20T04:14:32;94608.16;;;2.30;100.00
6345;BME280;3205;42.666;23.264;2023-03-20T04:16:58;94617.00;;;2.34;100.00
6345;BME280;3205;42.666;23.264;2023-03-20T04:19:24;94604.16;;;2.37;100.00
6345;BME280;3205;42.666;23.264;2023-03-20T04:21:50;94599.31;;;2.54;100.00
6345;BME280;3205;42.666;23.264;2023-03-20T04:24:16;94599.19;;;2.88;100.00
6345;BME280;3205;42.666;23.264;2023-03-20T04:26:42;94591.53;;;3.14;100.00
6345;BME280;3205;42.666;23.264;2023-03-20T04:29:08;94597.03;;;3.31;100.00
6345;BME280;3205;42.666;23.264;2023-03-20T04:31:36;94603.19;;;3.40;100.00
6345;BME280;3205;42.666;23.264;2023-03-20T04:34:02;94610.19;;;3.45;100.00
6345;BME280;3205;42.666;23.264;2023-03-20T04:36:28;94610.19;;;3.45;100.00
6345;BME280;3205;42.666;23.264;2023-03-20T04:38:54;94619.84;;;3.44;100.00
6345;BME280;3205;42.666;23.264;2023-03-20T04:41:20;94634.91;;;3.52;100.00
6345;BME280;3205;42.666;23.264;2023-03-20T04:43:46;94638.56;;;3.51;100.00
6345;BME280;3205;42.666;23.264;2023-03-20T04:46:12;94645.84;;;3.54;100.00
6345;BME280;3205;42.666;23.264;2023-03-20T04:48:39;94649.13;;;3.65;100.00
6345;BME280;3205;42.666;23.264;2023-03-20T04:51:07;94655.66;;;3.80;100.00
6345;BME280;3205;42.666;23.264;2023-03-20T04:53:33;94657.84;;;3.92;100.00
6345;BME280;3205;42.666;23.264;2023-03-20T04:55:59;94666.81;;;4.04;100.00
6345;BME280;3205;42.666;23.264;2023-03-20T04:58:25;94666.28;;;4.21;100.00
6345;BME280;3205;42.666;23.264;2023-03-20T05:00:51;94662.66;;;4.35;100.00
6345;BME280;3205;42.666;23.264;2023-03-20T05:03:17;94662.03;;;4.56;100.00
6345;BME280;3205;42.666;23.264;2023-03-20T05:05:44;94653.53;;;4.78;100.00
6345;BME280;3205;42.666;23.264;2023-03-20T05:08:10;94656.06;;;4.96;100.00
6345;BME280;3205;42.666;23.264;2023-03-20T05:10:36;94662.56;;;5.12;100.00
6345;BME280;3205;42.666;23.264;2023-03-20T05:13:02;94665.38;;;5.29;100.00
6345;BME280;3205;42.666;23.264;2023-03-20T05:15:28;94667.47;;;5.54;100.00
6345;BME280;3205;42.666;23.264;2023-03-20T05:17:54;94680.94;;;5.74;100.00
6345;BME280;3205;42.666;23.264;2023-03-20T05:20:21;94674.72;;;6.19;100.00
6345;BME280;3205;42.666;23.264;2023-03-20T05:22:48;94687.16;;;6.79;100.00
6345;BME280;3205;42.666;23.264;2023-03-20T05:25:15;94691.72;;;7.26;100.00
6345;BME280;3205;42.666;23.264;2023-03-20T05:27:43;94691.81;;;7.59;100.00
6345;BME280;3205;42.666;23.264;2023-03-20T05:30:11;94694.69;;;8.05;100.00
6345;BME280;3205;42.666;23.264;2023-03-20T05:32:37;94691.00;;;8.57;100.00
6345;BME280;3205;42.666;23.264;2023-03-20T05:35:04;94693.75;;;9.23;100.00
6345;BME280;3205;42.666;23.264;2023-03-20T05:37:31;94693.69;;;10.06;100.00
6345;BME280;3205;42.666;23.264;2023-03-20T05:39:58;94695.53;;;10.66;100.00
6345;BME280;3205;42.666;23.264;2023-03-20T05:42:24;94692.03;;;11.63;100.00
6345;BME280;3205;42.666;23.264;2023-03-20T05:44:50;94693.22;;;12.52;100.00
6345;BME280;3205;42.666;23.264;2023-03-20T05:47:16;94700.22;;;13.73;92.45
6345;BME280;3205;42.666;23.264;2023-03-20T05:49:43;94702.59;;;14.43;71.29
6345;BME280;3205;42.666;23.264;2023-03-20T05:52:09;94707.41;;;14.90;66.48
6345;BME280;3205;42.666;23.264;2023-03-20T05:54:36;94708.34;;;15.61;63.67
6345;BME280;3205;42.666;23.264;2023-03-20T05:57:03;94712.88;;;16.06;60.74
6345;BME280;3205;42.666;23.264;2023-03-20T05:59:29;94703.81;;;16.10;57.23
6345;BME280;3205;42.666;23.264;2023-03-20T06:01:55;94710.38;;;16.16;56.81
6345;BME280;3205;42.666;23.264;2023-03-20T06:04:21;94706.25;;;16.44;56.52
6345;BME280;3205;42.666;23.264;2023-03-20T06:06:47;94701.50;;;16.60;54.11
6345;BME280;3205;42.666;23.264;2023-03-20T06:09:13;94697.03;;;16.16;52.90
6345;BME280;3205;42.666;23.264;2023-03-20T06:11:40;94702.13;;;16.25;53.29
6345;BME280;3205;42.666;23.264;2023-03-20T06:14:06;94708.72;;;16.56;52.22
6345;BME280;3205;42.666;23.264;2023-03-20T06:16:33;94708.13;;;17.03;51.43
6345;BME280;3205;42.666;23.264;2023-03-20T06:18:59;94703.72;;;17.17;49.97
6345;BME280;3205;42.666;23.264;2023-03-20T06:21:43;94709.66;;;16.71;49.61
6345;BME280;3205;42.666;23.264;2023-03-20T06:24:09;94704.91;;;16.32;51.14
6345;BME280;3205;42.666;23.264;2023-03-20T06:26:35;94712.22;;;16.64;50.82
6345;BME280;3205;42.666;23.264;2023-03-20T06:29:01;94714.75;;;17.12;49.83
6345;BME280;3205;42.666;23.264;2023-03-20T06:31:28;94716.28;;;16.84;49.12
6345;BME280;3205;42.666;23.264;2023-03-20T06:33:54;94715.00;;;17.04;49.64
6345;BME280;3205;42.666;23.264;2023-03-20T06:36:20;94720.16;;;17.52;48.61
6345;BME280;3205;42.666;23.264;2023-03-20T06:38:47;94723.63;;;17.56;48.02
6345;BME280;3205;42.666;23.264;2023-03-20T06:41:13;94713.22;;;17.44;48.28
6345;BME280;3205;42.666;23.264;2023-03-20T06:43:39;94724.84;;;18.08;47.08
6345;BME280;3205;42.666;23.264;2023-03-20T06:46:07;94711.41;;;18.48;45.76
6345;BME280;3205;42.666;23.264;2023-03-20T06:48:34;94710.47;;;18.91;44.85
6345;BME280;3205;42.666;23.264;2023-03-20T06:51:00;94710.81;;;20.02;43.39
6345;BME280;3205;42.666;23.264;2023-03-20T06:53:26;94710.38;;;20.77;41.38
6345;BME280;3205;42.666;23.264;2023-03-20T06:55:53;94696.56;;;21.60;39.75
6345;BME280;3205;42.666;23.264;2023-03-20T06:58:19;94697.59;;;21.87;38.86
6345;BME280;3205;42.666;23.264;2023-03-20T07:00:45;94705.81;;;22.13;38.96
6345;BME280;3205;42.666;23.264;2023-03-20T07:03:12;94711.97;;;22.17;39.02
6345;BME280;3205;42.666;23.264;2023-03-20T07:05:39;94704.34;;;21.44;38.34
6345;BME280;3205;42.666;23.264;2023-03-20T07:08:05;94696.56;;;21.60;38.78
6345;BME280;3205;42.666;23.264;2023-03-20T07:10:32;94701.59;;;21.58;38.91
6345;BME280;3205;42.666;23.264;2023-03-20T07:12:58;94700.94;;;21.98;37.99
6345;BME280;3205;42.666;23.264;2023-03-20T07:15:25;94698.94;;;22.09;37.45
6345;BME280;3205;42.666;23.264;2023-03-20T07:17:51;94692.75;;;22.12;37.56
6345;BME280;3205;42.666;23.264;2023-03-20T07:20:18;94684.13;;;22.74;36.53
6345;BME280;3205;42.666;23.264;2023-03-20T07:22:46;94695.34;;;23.06;36.12
6345;BME280;3205;42.666;23.264;2023-03-20T07:25:13;94682.78;;;22.89;36.29
6345;BME280;3205;42.666;23.264;2023-03-20T07:27:39;94690.53;;;22.87;36.40
6345;BME280;3205;42.666;23.264;2023-03-20T07:30:06;94697.97;;;21.10;37.95
6345;BME280;3205;42.666;23.264;2023-03-20T07:32:33;94697.50;;;21.29;39.11
6345;BME280;3205;42.666;23.264;2023-03-20T07:35:00;94692.00;;;21.57;38.61
6345;BME280;3205;42.666;23.264;2023-03-20T07:37:26;94695.94;;;22.00;38.13
6345;BME280;3205;42.666;23.264;2023-03-20T07:39:52;94698.09;;;22.62;37.87
6345;BME280;3205;42.666;23.264;2023-03-20T07:42:19;94693.75;;;23.09;36.40
6345;BME280;3205;42.666;23.264;2023-03-20T07:44:45;94699.38;;;23.51;36.28
6345;BME280;3205;42.666;23.264;2023-03-20T07:47:13;94696.78;;;24.23;34.98
6345;BME280;3205;42.666;23.264;2023-03-20T07:49:39;94698.59;;;24.06;34.75
6345;BME280;3205;42.666;23.264;2023-03-20T07:52:06;94702.66;;;24.44;34.65
6345;BME280;3205;42.666;23.264;2023-03-20T07:54:32;94702.44;;;24.32;34.23
6345;BME280;3205;42.666;23.264;2023-03-20T07:56:59;94699.38;;;24.56;34.29
6345;BME280;3205;42.666;23.264;2023-03-20T07:59:26;94701.81;;;25.32;33.37
6345;BME280;3205;42.666;23.264;2023-03-20T08:01:52;94698.91;;;25.77;33.03
6345;BME280;3205;42.666;23.264;2023-03-20T08:04:18;94702.19;;;26.20;32.73
6345;BME280;3205;42.666;23.264;2023-03-20T08:06:47;94688.66;;;26.20;32.54
6345;BME280;3205;42.666;23.264;2023-03-20T08:09:13;94698.00;;;26.79;31.74
6345;BME280;3205;42.666;23.264;2023-03-20T08:11:39;94696.13;;;26.48;31.29
6345;BME280;3205;42.666;23.264;2023-03-20T08:14:06;94701.06;;;26.81;31.19
6345;BME280;3205;42.666;23.264;2023-03-20T08:16:32;94693.97;;;26.71;31.18
6345;BME280;3205;42.666;23.264;2023-03-20T08:18:58;94694.25;;;26.61;31.06
6345;BME280;3205;42.666;23.264;2023-03-20T08:21:25;94705.19;;;26.86;30.95
6345;BME280;3205;42.666;23.264;2023-03-20T08:23:52;94699.78;;;25.90;31.36
6345;BME280;3205;42.666;23.264;2023-03-20T08:26:18;94700.66;;;26.03;31.88
6345;BME280;3205;42.666;23.264;2023-03-20T08:28:44;94699.13;;;26.66;30.96
6345;BME280;3205;42.666;23.264;2023-03-20T08:31:10;94696.72;;;27.00;30.32
6345;BME280;3205;42.666;23.264;2023-03-20T08:33:37;94696.59;;;27.31;30.05
6345;BME280;3205;42.666;23.264;2023-03-20T08:36:03;94698.34;;;27.79;29.80
6345;BME280;3205;42.666;23.264;2023-03-20T08:38:29;94703.34;;;27.80;29.94
6345;BME280;3205;42.666;23.264;2023-03-20T08:40:56;94700.00;;;28.26;29.56
6345;BME280;3205;42.666;23.264;2023-03-20T08:43:22;94690.88;;;29.33;28.70
6345;BME280;3205;42.666;23.264;2023-03-20T08:45:48;94691.56;;;29.04;28.06
6345;BME280;3205;42.666;23.264;2023-03-20T08:48:15;94693.28;;;28.64;27.99
6345;BME280;3205;42.666;23.264;2023-03-20T08:50:42;94696.09;;;28.27;28.75
6345;BME280;3205;42.666;23.264;2023-03-20T08:53:09;94687.38;;;27.82;29.41
6345;BME280;3205;42.666;23.264;2023-03-20T08:55:35;94685.22;;;27.36;29.46
6345;BME280;3205;42.666;23.264;2023-03-20T08:58:02;94684.22;;;27.83;29.34
6345;BME280;3205;42.666;23.264;2023-03-20T09:00:28;94687.16;;;28.01;29.02
6345;BME280;3205;42.666;23.264;2023-03-20T09:02:54;94683.28;;;27.08;29.61
6345;BME280;3205;42.666;23.264;2023-03-20T09:05:22;94685.09;;;27.27;29.90
6345;BME280;3205;42.666;23.264;2023-03-20T09:07:48;94679.25;;;26.85;30.27
6345;BME280;3205;42.666;23.264;2023-03-20T09:10:16;94680.34;;;27.44;29.45
6345;BME280;3205;42.666;23.264;2023-03-20T09:12:42;94673.47;;;27.80;29.11
6345;BME280;3205;42.666;23.264;2023-03-20T09:15:09;94671.72;;;28.11;28.92
6345;BME280;3205;42.666;23.264;2023-03-20T09:17:36;94671.00;;;27.57;28.83
6345;BME280;3205;42.666;23.264;2023-03-20T09:20:02;94662.59;;;27.80;28.82
6345;BME280;3205;42.666;23.264;2023-03-20T09:22:29;94667.16;;;28.08;28.57
6345;BME280;3205;42.666;23.264;2023-03-20T09:24:56;94672.22;;;28.43;28.27
6345;BME280;3205;42.666;23.264;2023-03-20T09:27:22;94660.47;;;26.62;29.38
6345;BME280;3205;42.666;23.264;2023-03-20T09:29:48;94658.38;;;26.06;30.46
6345;BME280;3205;42.666;23.264;2023-03-20T09:32:14;94659.16;;;26.22;30.29
6345;BME280;3205;42.666;23.264;2023-03-20T09:34:41;94659.84;;;25.24;31.08
6345;BME280;3205;42.666;23.264;2023-03-20T09:37:07;94657.63;;;26.05;31.00
6345;BME280;3205;42.666;23.264;2023-03-20T09:39:34;94649.69;;;26.14;30.27
6345;BME280;3205;42.666;23.264;2023-03-20T09:42:06;94644.22;;;26.90;29.88
6345;BME280;3205;42.666;23.264;2023-03-20T09:44:43;94636.66;;;27.38;29.59
6345;BME280;3205;42.666;23.264;2023-03-20T09:47:17;94633.22;;;28.25;28.96
6345;BME280;3205;42.666;23.264;2023-03-20T09:49:50;94624.63;;;27.52;29.10
6345;BME280;3205;42.666;23.264;2023-03-20T09:52:21;94625.25;;;26.30;30.28
6345;BME280;3205;42.666;23.264;2023-03-20T09:54:52;94614.03;;;26.88;30.01
6345;BME280;3205;42.666;23.264;2023-03-20T09:57:22;94612.97;;;24.69;31.99
6345;BME280;3205;42.666;23.264;2023-03-20T09:59:54;94600.25;;;24.04;33.12
6345;BME280;3205;42.666;23.264;2023-03-20T10:02:28;94594.69;;;23.13;34.71
6345;BME280;3205;42.666;23.264;2023-03-20T10:05:02;94586.97;;;21.71;35.95
6345;BME280;3205;42.666;23.264;2023-03-20T10:07:29;94583.53;;;21.64;37.17
6345;BME280;3205;42.666;23.264;2023-03-20T10:09:56;94579.28;;;21.73;36.90
6345;BME280;3205;42.666;23.264;2023-03-20T10:12:31;94580.25;;;21.39;37.51
6345;BME280;3205;42.666;23.264;2023-03-20T10:15:04;94574.63;;;20.30;38.82
6345;BME280;3205;42.666;23.264;2023-03-20T10:17:42;94573.94;;;20.02;39.70
6345;BME280;3205;42.666;23.264;2023-03-20T10:20:13;94581.59;;;20.17;40.60
6345;BME280;3205;42.666;23.264;2023-03-20T10:22:47;94572.63;;;20.55;39.58
6345;BME280;3205;42.666;23.264;2023-03-20T10:25:22;94573.91;;;20.26;39.45
6345;BME280;3205;42.666;23.264;2023-03-20T10:27:55;94567.47;;;19.65;40.28
6345;BME280;3205;42.666;23.264;2023-03-20T10:30:34;94561.69;;;19.14;41.57
6345;BME280;3205;42.666;23.264;2023-03-20T10:33:16;94558.63;;;19.23;41.67
6345;BME280;3205;42.666;23.264;2023-03-20T10:35:57;94551.75;;;19.49;42.15
6345;BME280;3205;42.666;23.264;2023-03-20T10:38:38;94551.75;;;19.49;42.00
6345;BME280;3205;42.666;23.264;2023-03-20T10:41:12;94548.28;;;19.45;41.88
6345;BME280;3205;42.666;23.264;2023-03-20T10:43:41;94544.06;;;19.58;41.73
6345;BME280;3205;42.666;23.264;2023-03-20T10:46:10;94534.88;;;19.70;41.34
6345;BME280;3205;42.666;23.264;2023-03-20T10:48:42;94534.88;;;19.73;41.69
6345;BME280;3205;42.666;23.264;2023-03-20T10:51:13;94535.97;;;19.93;41.59
6345;BME280;3205;42.666;23.264;2023-03-20T10:53:44;94522.59;;;19.97;41.85
6345;BME280;3205;42.666;23.264;2023-03-20T10:56:14;94526.44;;;19.71;40.99
6345;BME280;3205;42.666;23.264;2023-03-20T10:58:46;94527.97;;;19.65;41.19
6345;BME280;3205;42.666;23.264;2023-03-20T11:01:14;94525.31;;;19.58;41.85
6345;BME280;3205;42.666;23.264;2023-03-20T11:03:41;94519.59;;;19.39;41.52
6345;BME280;3205;42.666;23.264;2023-03-20T11:06:14;94516.53;;;19.20;41.78
6345;BME280;3205;42.666;23.264;2023-03-20T11:08:47;94513.44;;;19.25;41.57
6345;BME280;3205;42.666;23.264;2023-03-20T11:11:21;94500.81;;;19.18;42.27
6345;BME280;3205;42.666;23.264;2023-03-20T11:13:47;94503.88;;;19.13;41.66
6345;BME280;3205;42.666;23.264;2023-03-20T11:16:19;94493.94;;;19.28;41.83
6345;BME280;3205;42.666;23.264;2023-03-20T11:18:46;94501.56;;;19.53;42.13
6345;BME280;3205;42.666;23.264;2023-03-20T11:21:17;94490.09;;;19.46;41.06
6345;BME280;3205;42.666;23.264;2023-03-20T11:23:44;94493.94;;;19.41;41.08
6345;BME280;3205;42.666;23.264;2023-03-20T11:26:12;94490.84;;;19.57;40.86
6345;BME280;3205;42.666;23.264;2023-03-20T11:28:46;94477.38;;;19.74;40.70
6345;BME280;3205;42.666;23.264;2023-03-20T11:31:19;94478.13;;;19.78;40.45
6345;BME280;3205;42.666;23.264;2023-03-20T11:33:50;94471.22;;;19.81;40.03
6345;BME280;3205;42.666;23.264;2023-03-20T11:36:22;94479.63;;;19.93;40.37
6345;BME280;3205;42.666;23.264;2023-03-20T11:38:50;94475.47;;;19.71;40.15
6345;BME280;3205;42.666;23.264;2023-03-20T11:41:20;94464.41;;;19.55;40.36
6345;BME280;3205;42.666;23.264;2023-03-20T11:43:48;94456.38;;;19.55;41.17
6345;BME280;3205;42.666;23.264;2023-03-20T11:46:14;94450.16;;;19.76;40.85
6345;BME280;3205;42.666;23.264;2023-03-20T11:48:41;94451.72;;;19.77;39.61
6345;BME280;3205;42.666;23.264;2023-03-20T11:51:10;94442.56;;;19.53;40.12
6345;BME280;3205;42.666;23.264;2023-03-20T11:53:41;94439.91;;;19.46;39.66
6345;BME280;3205;42.666;23.264;2023-03-20T11:56:09;94433.75;;;19.56;38.79
6345;BME280;3205;42.666;23.264;2023-03-20T11:58:45;94428.72;;;19.69;39.57
6345;BME280;3205;42.666;23.264;2023-03-20T12:01:14;94431.81;;;19.67;39.35
6345;BME280;3205;42.666;23.264;2023-03-20T12:03:48;94422.22;;;19.70;39.66
6345;BME280;3205;42.666;23.264;2023-03-20T12:06:18;94419.88;;;19.89;40.34
6345;BME280;3205;42.666;23.264;2023-03-20T12:08:49;94417.94;;;19.97;38.55
6345;BME280;3205;42.666;23.264;2023-03-20T12:11:42;94418.66;;;20.01;39.03
6345;BME280;3205;42.666;23.264;2023-03-20T12:14:21;94417.13;;;20.10;38.55
6345;BME280;3205;42.666;23.264;2023-03-20T12:16:52;94406.75;;;20.12;38.78
6345;BME280;3205;42.666;23.264;2023-03-20T12:19:25;94406.75;;;20.09;37.73
6345;BME280;3205;42.666;23.264;2023-03-20T12:21:58;94407.97;;;19.90;37.94
6345;BME280;3205;42.666;23.264;2023-03-20T12:24:32;94412.56;;;19.86;39.04
6345;BME280;3205;42.666;23.264;2023-03-20T12:27:13;94406.03;;;19.91;38.83
6345;BME280;3205;42.666;23.264;2023-03-20T12:29:45;94400.28;;;20.03;39.61
6345;BME280;3205;42.666;23.264;2023-03-20T12:32:16;94398.69;;;20.12;38.13
6345;BME280;3205;42.666;23.264;2023-03-20T12:34:48;94397.53;;;20.13;38.07
6345;BME280;3205;42.666;23.264;2023-03-20T12:37:16;94392.16;;;20.13;37.99
6345;BME280;3205;42.666;23.264;2023-03-20T12:39:47;94389.88;;;20.12;37.54
6345;BME280;3205;42.666;23.264;2023-03-20T12:42:22;94393.72;;;20.07;37.43
6345;BME280;3205;42.666;23.264;2023-03-20T12:44:55;94383.78;;;20.04;37.66
6345;BME280;3205;42.666;23.264;2023-03-20T12:47:56;94382.97;;;20.11;37.39
6345;BME280;3205;42.666;23.264;2023-03-20T12:50:29;94374.19;;;20.10;37.15
6345;BME280;3205;42.666;23.264;2023-03-20T12:53:10;94364.22;;;20.07;37.76
6345;BME280;3205;42.666;23.264;2023-03-20T12:55:44;94365.75;;;20.08;38.12
6345;BME280;3205;42.666;23.264;2023-03-20T12:58:20;94364.94;;;20.14;37.42
6345;BME280;3205;42.666;23.264;2023-03-20T13:00:55;94358.00;;;20.24;38.02
6345;BME280;3205;42.666;23.264;2023-03-20T13:06:31;94357.44;;;20.50;35.89
6345;BME280;3205;42.666;23.264;2023-03-20T13:11:59;94342.06;;;20.50;35.59
6345;BME280;3205;42.666;23.264;2023-03-20T13:14:31;94345.88;;;20.53;36.17
6345;BME280;3205;42.666;23.264;2023-03-20T13:17:04;94335.09;;;20.60;35.36
6345;BME280;3205;42.666;23.264;2023-03-20T13:19:41;94331.97;;;20.68;34.92
6345;BME280;3205;42.666;23.264;2023-03-20T13:22:15;94333.81;;;20.75;34.47
6345;BME280;3205;42.666;23.264;2023-03-20T13:24:45;94327.03;;;20.60;34.92
6345;BME280;3205;42.666;23.264;2023-03-20T13:27:23;94326.69;;;20.58;35.26
6345;BME280;3205;42.666;23.264;2023-03-20T13:29:56;94322.53;;;20.46;34.40
6345;BME280;3205;42.666;23.264;2023-03-20T13:32:32;94325.22;;;20.46;34.48
6345;BME280;3205;42.666;23.264;2023-03-20T13:35:19;94319.19;;;20.32;34.36